createdAt,value
2019-03-28T00:00:04.685Z,20.15
2019-03-28T00:02:33.040Z,20.16
2019-03-28T00:05:01.295Z,21.23
2019-03-28T00:07:29.560Z,20.54
2019-03-28T00:09:57.836Z,19.81
2019-03-28T00:12:28.100Z,18.83
2019-03-28T00:14:56.542Z,19.92
2019-03-28T00:17:24.798Z,21.15
2019-03-28T00:19:53.079Z,21.12
2019-03-28T00:22:23.122Z,20.58
2019-03-28T00:24:58.713Z,20.38
2019-03-28T00:27:26.997Z,19.67
2019-03-28T00:29:55.258Z,20.74
2019-03-28T00:32:23.554Z,21.57
2019-03-28T00:34:51.821Z,20.30
2019-03-28T00:37:20.101Z,19.47
2019-03-28T00:39:49.913Z,19.56
2019-03-28T00:42:19.966Z,19.70
2019-03-28T00:44:48.294Z,20.26
2019-03-28T00:47:16.619Z,20.25
2019-03-28T00:49:45.739Z,20.58
2019-03-28T00:52:14.010Z,21.07
2019-03-28T00:54:42.314Z,20.69
2019-03-28T00:57:10.571Z,20.26
2019-03-28T00:59:38.861Z,17.64
2019-03-28T01:02:07.134Z,20.48
2019-03-28T01:04:35.436Z,18.78
2019-03-28T01:07:03.712Z,19.12
2019-03-28T01:09:32.000Z,18.94
2019-03-28T01:12:00.279Z,19.12
2019-03-28T01:14:28.620Z,18.95
2019-03-28T01:16:56.907Z,20.76
2019-03-28T01:19:25.159Z,20.14
2019-03-28T01:21:53.423Z,20.12
2019-03-28T01:24:21.777Z,19.72
2019-03-28T01:26:57.245Z,17.77
2019-03-28T01:29:20.053Z,18.97
2019-03-28T01:31:48.332Z,20.70
2019-03-28T01:34:16.619Z,21.22
2019-03-28T01:36:44.869Z,20.27
2019-03-28T01:39:13.138Z,20.89
2019-03-28T01:41:41.397Z,19.89
2019-03-28T01:44:09.665Z,21.00
2019-03-28T01:46:37.961Z,21.12
2019-03-28T01:49:06.214Z,19.90
2019-03-28T01:51:34.493Z,20.83
2019-03-28T01:54:03.332Z,21.03
2019-03-28T01:56:31.741Z,21.11
2019-03-28T01:59:00.045Z,21.10
2019-03-28T02:01:28.298Z,21.18
2019-03-28T02:03:56.602Z,20.59
2019-03-28T02:06:24.906Z,20.56
2019-03-28T02:08:53.170Z,21.34
2019-03-28T02:11:21.447Z,21.31
2019-03-28T02:13:49.721Z,21.54
2019-03-28T02:16:18.012Z,21.13
2019-03-28T02:18:46.275Z,21.99
2019-03-28T02:21:14.578Z,22.50
2019-03-28T02:23:42.852Z,21.30
2019-03-28T02:26:11.170Z,21.30
2019-03-28T02:28:39.436Z,21.20
2019-03-28T02:31:07.722Z,21.53
2019-03-28T02:33:35.993Z,20.33
2019-03-28T02:36:04.291Z,20.11
2019-03-28T02:38:32.645Z,20.65
2019-03-28T02:41:00.906Z,19.44
2019-03-28T02:43:29.195Z,19.68
2019-03-28T02:45:57.480Z,20.39
2019-03-28T02:48:25.778Z,18.97
2019-03-28T02:50:54.056Z,20.63
2019-03-28T02:53:22.349Z,20.04
2019-03-28T02:55:50.608Z,19.53
2019-03-28T02:58:18.876Z,19.20
2019-03-28T03:00:48.107Z,19.17
2019-03-28T03:03:16.624Z,19.07
2019-03-28T03:05:44.882Z,20.33
2019-03-28T03:08:13.241Z,20.03
2019-03-28T03:10:41.502Z,18.46
2019-03-28T03:13:09.786Z,19.83
2019-03-28T03:15:38.038Z,20.56
2019-03-28T03:18:06.327Z,21.63
2019-03-28T03:20:34.589Z,22.07
2019-03-28T03:23:02.874Z,21.71
2019-03-28T03:25:31.131Z,20.35
2019-03-28T03:27:59.596Z,20.71
2019-03-28T03:30:27.881Z,21.47
2019-03-28T03:32:56.161Z,21.30
2019-03-28T03:35:24.779Z,20.38
2019-03-28T03:37:53.154Z,20.58
2019-03-28T03:40:21.496Z,19.79
2019-03-28T03:42:49.804Z,19.50
2019-03-28T03:45:18.057Z,20.08
2019-03-28T03:47:46.324Z,20.75
2019-03-28T03:50:17.787Z,21.26
2019-03-28T03:52:46.059Z,21.02
2019-03-28T03:55:14.324Z,19.25
2019-03-28T03:57:42.613Z,21.24
2019-03-28T04:00:10.949Z,19.98
2019-03-28T04:02:39.231Z,18.71
2019-03-28T04:05:07.938Z,19.82
2019-03-28T04:07:36.195Z,21.07
2019-03-28T04:10:05.716Z,20.34
2019-03-28T04:12:33.999Z,20.29
2019-03-28T04:15:02.275Z,20.73
2019-03-28T04:17:30.535Z,19.96
2019-03-28T04:19:58.981Z,20.48
2019-03-28T04:22:27.170Z,21.09
2019-03-28T04:24:55.426Z,20.72
2019-03-28T04:27:25.383Z,19.90
2019-03-28T04:29:53.629Z,20.82
2019-03-28T04:32:21.897Z,20.13
2019-03-28T04:34:50.167Z,20.10
2019-03-28T04:37:18.441Z,18.69
2019-03-28T04:39:46.701Z,18.98
2019-03-28T04:42:14.977Z,19.40
2019-03-28T04:44:43.270Z,19.25
2019-03-28T04:47:11.540Z,19.07
2019-03-28T04:49:39.821Z,19.82
2019-03-28T04:52:08.099Z,19.40
2019-03-28T04:54:36.441Z,19.57
2019-03-28T04:57:04.737Z,19.21
2019-03-28T04:59:32.995Z,19.13
2019-03-28T05:02:03.695Z,19.23
2019-03-28T05:04:31.253Z,19.48
2019-03-28T05:06:59.543Z,18.34
2019-03-28T05:09:27.801Z,19.33
2019-03-28T05:11:56.137Z,21.03
2019-03-28T05:14:24.473Z,21.60
2019-03-28T05:16:52.734Z,20.17
2019-03-28T05:19:21.011Z,20.28
2019-03-28T05:21:49.266Z,21.12
2019-03-28T05:24:17.534Z,21.17
2019-03-28T05:26:45.810Z,21.13
2019-03-28T05:29:14.089Z,21.29
2019-03-28T05:31:42.391Z,20.71
2019-03-28T05:34:10.644Z,20.65
2019-03-28T05:36:38.923Z,19.86
2019-03-28T05:39:07.261Z,19.11
2019-03-28T05:41:35.565Z,19.46
2019-03-28T05:44:03.895Z,20.53
2019-03-28T05:46:32.165Z,20.21
2019-03-28T05:49:00.455Z,19.99
2019-03-28T05:51:28.717Z,19.88
2019-03-28T05:53:57.011Z,20.31
2019-03-28T05:56:25.284Z,20.28
2019-03-28T05:58:54.171Z,21.09
2019-03-28T06:01:22.594Z,19.87
2019-03-28T06:03:50.872Z,20.39
2019-03-28T06:06:19.139Z,19.88
2019-03-28T06:08:47.428Z,20.67
2019-03-28T06:11:15.705Z,20.44
2019-03-28T06:13:43.962Z,20.74
2019-03-28T06:16:12.250Z,21.13
2019-03-28T06:18:40.531Z,20.91
2019-03-28T06:21:08.801Z,20.55
2019-03-28T06:23:37.085Z,21.18
2019-03-28T06:26:05.370Z,21.03
2019-03-28T06:28:33.647Z,20.40
2019-03-28T06:31:01.927Z,21.42
2019-03-28T06:33:30.203Z,21.34
2019-03-28T06:35:58.469Z,21.26
2019-03-28T06:38:26.746Z,22.12
2019-03-28T06:40:55.002Z,21.18
2019-03-28T06:43:23.278Z,20.71
2019-03-28T06:45:51.534Z,21.28
2019-03-28T06:48:19.808Z,21.16
2019-03-28T06:50:48.092Z,21.60
2019-03-28T06:53:16.370Z,21.39
2019-03-28T06:55:44.634Z,19.88
2019-03-28T06:58:12.974Z,21.60
2019-03-28T07:00:41.242Z,21.76
2019-03-28T07:03:09.506Z,22.55
2019-03-28T07:05:37.790Z,22.16
2019-03-28T07:08:06.059Z,22.23
2019-03-28T07:10:34.331Z,22.73
2019-03-28T07:13:02.615Z,23.01
2019-03-28T07:15:30.913Z,22.96
2019-03-28T07:17:59.170Z,22.91
2019-03-28T07:20:27.445Z,22.91
2019-03-28T07:22:55.730Z,22.61
2019-03-28T07:25:25.536Z,21.96
2019-03-28T07:27:54.061Z,22.86
2019-03-28T07:30:22.414Z,22.98
2019-03-28T07:32:50.679Z,23.13
2019-03-28T07:35:18.951Z,23.25
2019-03-28T07:37:47.208Z,23.43
2019-03-28T07:40:15.735Z,22.96
2019-03-28T07:42:47.183Z,23.29
2019-03-28T07:45:19.941Z,23.00
2019-03-28T07:47:48.294Z,22.80
2019-03-28T07:50:16.732Z,23.32
2019-03-28T07:52:45.074Z,23.28
2019-03-28T07:55:16.296Z,23.92
2019-03-28T07:57:43.509Z,24.02
2019-03-28T08:00:12.249Z,24.23
2019-03-28T08:02:40.631Z,23.86
2019-03-28T08:05:10.181Z,23.64
2019-03-28T08:07:44.766Z,23.83
2019-03-28T08:10:09.921Z,24.20
2019-03-28T08:12:38.257Z,23.41
2019-03-28T08:15:09.483Z,24.18
2019-03-28T08:17:37.755Z,24.12
2019-03-28T08:20:10.909Z,24.44
2019-03-28T08:22:39.190Z,23.90
2019-03-28T08:25:11.714Z,24.43
2019-03-28T08:30:40.010Z,25.07
2019-03-28T08:33:09.074Z,25.27
2019-03-28T08:35:37.895Z,25.66
2019-03-28T08:38:09.777Z,25.43
2019-03-28T08:40:40.067Z,25.00
2019-03-28T08:43:08.551Z,24.88
2019-03-28T08:45:36.815Z,25.05
2019-03-28T08:48:05.372Z,25.84
2019-03-28T08:50:33.674Z,25.37
2019-03-28T08:53:01.932Z,25.46
2019-03-28T08:55:30.258Z,25.84
2019-03-28T08:57:58.546Z,26.03
2019-03-28T09:00:33.191Z,26.14
2019-03-28T09:02:56.916Z,25.95
2019-03-28T09:05:25.173Z,26.19
2019-03-28T09:07:53.466Z,25.55
2019-03-28T09:10:21.842Z,26.04
2019-03-28T09:12:50.151Z,26.42
2019-03-28T09:15:18.499Z,26.65
2019-03-28T09:17:46.771Z,26.31
2019-03-28T09:20:15.140Z,26.79
2019-03-28T09:22:43.421Z,27.19
2019-03-28T09:25:12.477Z,27.31
2019-03-28T09:27:40.911Z,26.59
2019-03-28T09:30:10.067Z,26.81
2019-03-28T09:32:38.417Z,27.10
2019-03-28T09:35:07.439Z,27.62
2019-03-28T09:37:35.714Z,26.75
2019-03-28T09:40:05.039Z,26.42
2019-03-28T09:42:34.428Z,26.53
2019-03-28T09:45:03.170Z,25.61
2019-03-28T09:47:31.479Z,26.91
2019-03-28T09:49:59.755Z,27.27
2019-03-28T09:52:28.033Z,27.43
2019-03-28T09:54:56.307Z,26.71
2019-03-28T09:57:26.213Z,27.38
2019-03-28T09:59:54.484Z,26.77
2019-03-28T10:02:22.751Z,26.32
2019-03-28T10:04:51.021Z,26.33
2019-03-28T10:07:19.323Z,26.80
2019-03-28T10:09:47.662Z,26.36
2019-03-28T10:12:15.871Z,25.83
2019-03-28T10:14:44.143Z,26.54
2019-03-28T10:17:12.433Z,26.89
2019-03-28T10:19:40.699Z,27.45
2019-03-28T10:22:08.989Z,27.33
2019-03-28T10:24:37.261Z,27.81
2019-03-28T10:27:05.537Z,27.27
2019-03-28T10:29:33.802Z,27.04
2019-03-28T10:32:02.143Z,26.75
2019-03-28T10:34:30.445Z,27.34
2019-03-28T10:36:58.767Z,27.40
2019-03-28T10:39:27.049Z,27.45
2019-03-28T10:41:55.339Z,28.07
2019-03-28T10:44:23.611Z,27.76
2019-03-28T10:46:51.888Z,27.89
2019-03-28T10:49:20.166Z,26.79
2019-03-28T10:51:48.458Z,28.46
2019-03-28T10:54:20.467Z,27.90
2019-03-28T10:56:52.011Z,28.72
2019-03-28T10:59:23.567Z,28.19
2019-03-28T11:01:50.564Z,27.84
2019-03-28T11:04:16.810Z,27.15
2019-03-28T11:06:45.068Z,27.99
2019-03-28T11:09:13.446Z,28.59
2019-03-28T11:11:41.673Z,28.21
2019-03-28T11:14:09.971Z,29.11
2019-03-28T11:16:38.318Z,28.47
2019-03-28T11:19:06.604Z,28.54
2019-03-28T11:21:35.121Z,28.62
2019-03-28T11:24:03.399Z,29.18
2019-03-28T11:26:31.759Z,29.83
2019-03-28T11:29:01.077Z,29.35
2019-03-28T11:31:29.505Z,28.48
2019-03-28T11:33:57.813Z,28.02
2019-03-28T11:36:26.088Z,27.81
2019-03-28T11:38:54.957Z,28.26
2019-03-28T11:41:23.431Z,31.27
2019-03-28T11:43:51.699Z,30.94
2019-03-28T11:46:19.979Z,29.42
2019-03-28T11:48:48.244Z,31.24
2019-03-28T11:51:16.550Z,31.53
2019-03-28T11:53:44.836Z,33.39
2019-03-28T11:56:13.113Z,31.31
2019-03-28T11:58:41.364Z,30.78
2019-03-28T12:01:09.631Z,30.41
2019-03-28T12:03:37.923Z,33.54
2019-03-28T12:06:06.206Z,31.92
2019-03-28T12:08:34.471Z,34.87
2019-03-28T12:11:02.768Z,33.96
2019-03-28T12:13:39.107Z,33.51
2019-03-28T12:16:01.029Z,34.76
2019-03-28T12:18:29.287Z,35.32
2019-03-28T12:20:57.560Z,31.86
2019-03-28T12:23:25.821Z,33.09
2019-03-28T12:25:54.097Z,35.48
2019-03-28T12:28:22.372Z,34.62
2019-03-28T12:30:50.665Z,34.13
2019-03-28T12:33:18.921Z,36.33
2019-03-28T12:35:47.197Z,38.05
2019-03-28T12:38:15.462Z,36.00
2019-03-28T12:40:43.736Z,37.74
2019-03-28T12:43:11.991Z,36.41
2019-03-28T12:45:40.263Z,37.38
2019-03-28T12:48:08.531Z,38.53
2019-03-28T12:50:36.802Z,36.08
2019-03-28T12:53:05.189Z,34.32
2019-03-28T12:55:33.656Z,35.05
2019-03-28T12:58:01.924Z,34.72
2019-03-28T13:00:35.471Z,36.78
2019-03-28T13:03:03.833Z,37.24
2019-03-28T13:05:34.742Z,37.73
2019-03-28T13:08:06.323Z,38.25
2019-03-28T13:10:34.600Z,38.63
2019-03-28T13:13:03.836Z,35.29
2019-03-28T13:15:32.416Z,36.67
2019-03-28T13:18:00.696Z,35.76
2019-03-28T13:20:28.971Z,35.03
2019-03-28T13:22:57.238Z,35.52
2019-03-28T13:25:25.513Z,37.26
2019-03-28T13:27:53.801Z,38.02
2019-03-28T13:30:22.058Z,40.74
2019-03-28T13:32:50.315Z,40.19
2019-03-28T13:35:18.592Z,40.65
2019-03-28T13:37:46.910Z,40.87
2019-03-28T13:40:15.253Z,37.96
2019-03-28T13:42:43.512Z,36.65
2019-03-28T13:45:12.326Z,38.98
2019-03-28T13:47:40.596Z,39.91
2019-03-28T13:50:10.350Z,42.59
2019-03-28T13:52:38.728Z,41.38
2019-03-28T13:55:07.842Z,41.98
2019-03-28T13:57:36.122Z,39.80
2019-03-28T14:00:06.295Z,36.57
2019-03-28T14:02:34.831Z,35.28
2019-03-28T14:05:03.093Z,34.77
2019-03-28T14:07:31.369Z,34.18
2019-03-28T14:09:59.657Z,37.37
2019-03-28T14:12:27.946Z,37.87
2019-03-28T14:14:56.219Z,39.64
2019-03-28T14:17:24.504Z,38.08
2019-03-28T14:19:52.771Z,39.44
2019-03-28T14:22:21.021Z,41.68
2019-03-28T14:24:50.939Z,40.80
2019-03-28T14:27:19.208Z,39.83
2019-03-28T14:29:47.480Z,39.02
2019-03-28T14:32:15.743Z,40.76
2019-03-28T14:34:44.122Z,42.73
2019-03-28T14:37:12.410Z,42.93
2019-03-28T14:39:40.696Z,41.73
2019-03-28T14:42:09.013Z,40.22
2019-03-28T14:44:37.285Z,36.75
2019-03-28T14:47:05.542Z,36.17
2019-03-28T14:49:33.903Z,36.01
2019-03-28T14:52:03.211Z,34.47
2019-03-28T14:54:31.477Z,35.30
2019-03-28T14:57:00.866Z,32.70
2019-03-28T14:59:32.809Z,33.19
2019-03-28T15:01:59.456Z,34.03
2019-03-28T15:04:27.738Z,33.74
2019-03-28T15:06:55.998Z,32.93
2019-03-28T15:09:24.284Z,33.76
2019-03-28T15:11:52.545Z,38.21
2019-03-28T15:14:20.840Z,36.93
2019-03-28T15:16:49.121Z,35.38
2019-03-28T15:19:17.409Z,34.03
2019-03-28T15:21:45.663Z,33.65
2019-03-28T15:24:13.954Z,34.00
2019-03-28T15:26:42.324Z,33.17
2019-03-28T15:29:10.668Z,32.68
2019-03-28T15:31:38.999Z,32.47
2019-03-28T15:34:07.315Z,31.87
2019-03-28T15:36:35.595Z,32.35
2019-03-28T15:39:05.762Z,31.86
2019-03-28T15:41:35.159Z,31.85
2019-03-28T15:44:03.436Z,32.03
2019-03-28T15:46:31.712Z,31.67
2019-03-28T15:49:00.076Z,31.48
2019-03-28T15:51:28.343Z,31.77
2019-03-28T15:53:56.619Z,32.18
2019-03-28T15:56:24.894Z,30.90
2019-03-28T15:58:53.174Z,31.47
2019-03-28T16:01:21.451Z,31.54
2019-03-28T16:03:53.058Z,32.13
2019-03-28T16:06:22.329Z,32.51
2019-03-28T16:08:49.743Z,32.22
2019-03-28T16:11:18.028Z,32.00
2019-03-28T16:13:46.378Z,31.77
2019-03-28T16:16:14.659Z,32.12
2019-03-28T16:18:42.937Z,31.50
2019-03-28T16:21:11.197Z,32.22
2019-03-28T16:23:39.493Z,30.71
2019-03-28T16:26:07.763Z,30.71
2019-03-28T16:28:36.051Z,31.32
2019-03-28T16:31:04.325Z,31.53
2019-03-28T16:33:32.575Z,30.97
2019-03-28T16:36:00.842Z,31.03
2019-03-28T16:38:29.110Z,31.31
2019-03-28T16:40:57.857Z,30.91
2019-03-28T16:43:26.216Z,31.24
2019-03-28T16:45:54.479Z,31.31
2019-03-28T16:48:22.748Z,31.00
2019-03-28T16:50:51.019Z,31.46
2019-03-28T16:53:19.384Z,30.56
2019-03-28T16:55:47.682Z,30.62
2019-03-28T16:58:15.955Z,30.63
2019-03-28T17:00:44.237Z,31.29
2019-03-28T17:03:12.512Z,30.95
2019-03-28T17:05:41.642Z,30.97
2019-03-28T17:08:10.308Z,29.85
2019-03-28T17:10:45.976Z,31.03
2019-03-28T17:13:15.087Z,28.96
2019-03-28T17:15:43.356Z,29.77
2019-03-28T17:18:11.713Z,29.20
2019-03-28T17:20:40.726Z,28.41
2019-03-28T17:23:09.079Z,30.18
2019-03-28T17:25:37.325Z,29.87
2019-03-28T17:28:05.593Z,30.15
2019-03-28T17:30:33.854Z,30.55
2019-03-28T17:33:02.137Z,30.31
2019-03-28T17:35:30.398Z,30.04
2019-03-28T17:37:58.807Z,30.00
2019-03-28T17:40:27.068Z,29.72
2019-03-28T17:42:55.353Z,29.32
2019-03-28T17:45:23.713Z,29.45
2019-03-28T17:47:52.014Z,29.22
2019-03-28T17:50:20.287Z,30.13
2019-03-28T17:52:48.591Z,29.56
2019-03-28T17:55:19.611Z,29.11
2019-03-28T17:57:46.969Z,28.97
2019-03-28T18:00:15.291Z,29.29
2019-03-28T18:02:43.570Z,29.01
2019-03-28T18:05:15.571Z,28.94
2019-03-28T18:07:41.912Z,29.44
2019-03-28T18:10:10.425Z,29.92
2019-03-28T18:12:39.651Z,29.56
2019-03-28T18:15:08.195Z,29.02
2019-03-28T18:17:36.493Z,29.40
2019-03-28T18:20:06.730Z,29.49
2019-03-28T18:22:34.988Z,29.08
2019-03-28T18:25:03.794Z,28.99
2019-03-28T18:27:32.063Z,28.25
2019-03-28T18:30:00.367Z,29.46
2019-03-28T18:32:28.647Z,28.84
2019-03-28T18:35:05.023Z,28.75
2019-03-28T18:37:26.933Z,28.80
2019-03-28T18:39:55.220Z,28.23
2019-03-28T18:42:23.504Z,28.87
2019-03-28T18:44:51.800Z,28.68
2019-03-28T18:47:20.064Z,28.78
2019-03-28T18:49:48.328Z,28.53
2019-03-28T18:52:16.605Z,28.27
2019-03-28T18:54:44.897Z,29.02
2019-03-28T18:57:13.723Z,28.49
2019-03-28T18:59:42.208Z,27.83
2019-03-28T19:02:10.507Z,28.42
2019-03-28T19:04:38.780Z,28.49
2019-03-28T19:07:07.040Z,28.78
2019-03-28T19:09:35.344Z,28.58
2019-03-28T19:12:03.612Z,27.68
2019-03-28T19:14:32.002Z,29.09
2019-03-28T19:17:00.229Z,28.57
2019-03-28T19:19:38.838Z,28.58
2019-03-28T19:21:58.486Z,28.64
2019-03-28T19:24:26.765Z,29.54
2019-03-28T19:26:55.028Z,28.97
2019-03-28T19:29:23.307Z,28.94
2019-03-28T19:31:51.573Z,28.85
2019-03-28T19:34:19.852Z,28.68
2019-03-28T19:36:48.189Z,29.03
2019-03-28T19:39:19.638Z,28.43
2019-03-28T19:41:48.989Z,28.64
2019-03-28T19:44:17.252Z,28.62
2019-03-28T19:46:45.527Z,28.42
2019-03-28T19:49:13.805Z,28.52
2019-03-28T19:51:42.080Z,28.05
2019-03-28T19:54:10.360Z,28.67
2019-03-28T19:56:38.622Z,28.77
2019-03-28T19:59:06.934Z,28.22
2019-03-28T20:01:35.748Z,28.22
2019-03-28T20:04:03.999Z,27.75
2019-03-28T20:06:32.269Z,27.74
2019-03-28T20:09:00.528Z,27.37
2019-03-28T20:11:28.886Z,27.77
2019-03-28T20:13:57.176Z,28.08
2019-03-28T20:16:25.951Z,28.33
2019-03-28T20:18:54.551Z,27.79
2019-03-28T20:21:22.909Z,27.85
2019-03-28T20:23:51.217Z,27.80
2019-03-28T20:26:19.976Z,27.88
2019-03-28T20:28:48.351Z,28.01
2019-03-28T20:31:16.649Z,27.46
2019-03-28T20:33:44.905Z,27.43
2019-03-28T20:36:36.328Z,27.60
2019-03-28T20:38:44.807Z,27.50
2019-03-28T20:41:13.244Z,27.87
2019-03-28T20:43:41.500Z,27.88
2019-03-28T20:46:09.856Z,28.05
2019-03-28T20:48:38.828Z,28.04
2019-03-28T20:51:07.476Z,28.00
2019-03-28T20:53:35.753Z,27.79
2019-03-28T20:56:04.163Z,27.98
2019-03-28T20:58:32.461Z,27.28
2019-03-28T21:01:00.734Z,27.13
2019-03-28T21:03:29.102Z,27.66
2019-03-28T21:05:58.146Z,27.43
2019-03-28T21:08:26.512Z,27.00
2019-03-28T21:10:54.860Z,27.11
2019-03-28T21:13:23.174Z,26.50
2019-03-28T21:15:51.432Z,26.76
2019-03-28T21:18:19.704Z,27.38
2019-03-28T21:20:47.964Z,26.46
2019-03-28T21:23:16.238Z,26.35
2019-03-28T21:25:44.581Z,26.14
2019-03-28T21:28:14.003Z,26.75
2019-03-28T21:30:47.623Z,26.99
2019-03-28T21:33:15.027Z,26.45
2019-03-28T21:35:42.528Z,26.52
2019-03-28T21:38:10.889Z,26.43
2019-03-28T21:40:39.174Z,26.53
2019-03-28T21:43:07.498Z,27.02
2019-03-28T21:45:35.788Z,26.47
2019-03-28T21:48:04.257Z,27.17
2019-03-28T21:50:32.537Z,26.84
2019-03-28T21:53:00.787Z,26.50
2019-03-28T21:55:29.077Z,26.62
2019-03-28T21:57:57.412Z,26.17
2019-03-28T22:00:25.712Z,26.00
2019-03-28T22:02:53.986Z,25.40
2019-03-28T22:05:22.262Z,26.48
2019-03-28T22:07:50.569Z,26.29
2019-03-28T22:10:18.840Z,26.61
2019-03-28T22:12:47.111Z,26.39
2019-03-28T22:15:15.423Z,26.12
2019-03-28T22:17:43.714Z,26.43
2019-03-28T22:20:12.324Z,26.17
2019-03-28T22:22:43.396Z,26.89
2019-03-28T22:25:10.680Z,26.38
2019-03-28T22:27:38.945Z,26.57
2019-03-28T22:30:08.362Z,26.36
2019-03-28T22:32:36.690Z,26.00
2019-03-28T22:35:07.013Z,26.28
2019-03-28T22:37:35.349Z,26.53
2019-03-28T22:40:05.686Z,25.56
2019-03-28T22:42:34.017Z,25.99
2019-03-28T22:45:02.298Z,25.90
2019-03-28T22:47:33.794Z,25.75
2019-03-28T22:50:00.544Z,25.58
2019-03-28T22:52:28.832Z,26.35
2019-03-28T22:54:57.105Z,26.16
2019-03-28T22:57:25.375Z,25.79
2019-03-28T22:59:53.700Z,26.44
2019-03-28T23:02:21.966Z,26.10
2019-03-28T23:04:53.277Z,25.59
2019-03-28T23:07:23.325Z,25.70
2019-03-28T23:09:51.606Z,24.12
2019-03-28T23:12:19.884Z,22.54
2019-03-28T23:14:48.161Z,22.40
2019-03-28T23:17:16.450Z,22.63
2019-03-28T23:19:44.702Z,22.26
2019-03-28T23:22:12.995Z,24.39
2019-03-28T23:24:44.432Z,25.28
2019-03-28T23:27:12.686Z,24.61
2019-03-28T23:29:42.603Z,25.51
2019-03-28T23:32:11.162Z,25.68
2019-03-28T23:34:39.530Z,25.01
2019-03-28T23:37:07.875Z,25.22
2019-03-28T23:39:36.126Z,24.69
2019-03-28T23:42:04.436Z,24.33
2019-03-28T23:44:32.740Z,24.26
2019-03-28T23:47:01.007Z,25.01
2019-03-28T23:49:29.273Z,24.99
2019-03-28T23:51:57.585Z,25.79
2019-03-28T23:54:26.827Z,25.32
2019-03-28T23:56:55.244Z,25.57
2019-03-28T23:59:23.533Z,25.23
